Terminal Aerodrome Forecast
Issued by NWS

Home | Current Version | Previous Version | Text Only | Print | Product List | Glossary On
Versions: 1 2 3 4 5 6 7 8 9 10 11 12 13 14 15
000
FTUS45 KPSR 241120
TAFSDL
TAF
KSDL 241120Z 2412/2512 VRB03KT P6SM SCT030 SCT050
     FM241800 25005KT P6SM SCT030 BKN050
     FM250200 VRB03KT P6SM FEW050 SCT180=

USA.gov is the U.S. government's official web portal to all federal, state and local government web resources and services.